sim
Sign-in with your pilot id or email,
or register
Callsign
Passwort

Schedule Details

Flight Number: RYR3741 (1)
Departure: Birmingham Airport (EGBB) at 06:50
Arrival: Fuerteventura Airport (GCFV) at 11:00
Route: Ryanair Passenger Schedule. Enter filed route here before submitting Pirep.

Weather Information
Getting current METAR information for EGBB 182020Z 08008KT CAVOK 15/08 Q1026
Getting current METAR information for GCFV 182030Z 36014KT 9999 FEW045 18/11 Q1019

Schedule Frequency

Route Map